Time;durP1;ratioP1;P1;durP2;ratioP2;P2;SDS_P1;SDS_P2;PMS_P1;PMS_P2;Temp;Humidity;BMP_temperature;BMP_pressure;BME280_temperature;BME280_humidity;BME280_pressure;Samples;Min_cycle;Max_cycle;Signal;HPM_P1;HPM_P2
2022/08/22 00:01:09;;;;;;;6.60;3.87;;;16.40;99.90;;;;;;5034044;28;20221;-87
2022/08/22 00:04:04;;;;;;;4.87;3.57;;;16.30;99.90;;;;;;5034810;28;20260;-87
2022/08/22 00:06:49;;;;;;;5.00;4.53;;;16.40;99.90;;;;;;5035324;28;20229;-87
2022/08/22 00:09:30;;;;;;;6.70;5.73;;;16.40;99.90;;;;;;5035367;28;20206;-87
2022/08/22 00:12:53;;;;;;;7.90;5.20;;;16.30;99.90;;;;;;5034981;28;20202;-87
2022/08/22 00:15:35;;;;;;;5.13;4.40;;;16.30;99.90;;;;;;4959236;28;20271;-87
2022/08/22 00:18:21;;;;;;;5.27;4.23;;;16.20;99.90;;;;;;5035464;28;20182;-87
2022/08/22 00:20:59;;;;;;;5.57;4.37;;;16.10;99.90;;;;;;5034703;28;20373;-87
2022/08/22 00:23:37;;;;;;;5.47;4.60;;;16.00;99.90;;;;;;5034986;28;20202;-87
2022/08/22 00:26:18;;;;;;;8.67;4.57;;;16.00;99.90;;;;;;5034927;28;20220;-87
2022/08/22 00:28:57;;;;;;;5.07;4.53;;;15.90;99.90;;;;;;5035039;28;20206;-87
2022/08/22 00:31:38;;;;;;;8.13;4.70;;;15.80;99.90;;;;;;5034745;28;20277;-87
2022/08/22 00:34:22;;;;;;;5.10;4.53;;;15.80;99.90;;;;;;5035121;28;20261;-87
2022/08/22 00:37:01;;;;;;;5.80;5.00;;;15.80;99.90;;;;;;5034843;28;20257;-86
2022/08/22 00:39:37;;;;;;;6.53;4.53;;;15.80;99.90;;;;;;5035085;28;20209;-87
2022/08/22 00:42:40;;;;;;;6.07;4.67;;;15.70;99.90;;;;;;5034004;28;20206;-87
2022/08/22 00:45:10;;;;;;;5.40;4.50;;;15.70;99.90;;;;;;5034747;28;20175;-87
2022/08/22 00:48:00;;;;;;;7.23;5.30;;;15.70;99.90;;;;;;5034709;28;20236;-87
2022/08/22 00:50:44;;;;;;;6.37;5.03;;;15.80;99.90;;;;;;5034211;28;20249;-87
2022/08/22 00:53:49;;;;;;;6.07;4.50;;;15.80;99.90;;;;;;5034578;28;20272;-87
2022/08/22 00:56:29;;;;;;;6.70;4.97;;;15.80;99.90;;;;;;4974568;28;20195;-87
2022/08/22 00:59:03;;;;;;;6.20;4.70;;;15.80;99.90;;;;;;4958634;28;20173;-87
2022/08/22 01:01:34;;;;;;;4.80;4.30;;;15.80;99.90;;;;;;5004343;28;20332;-87
2022/08/22 01:04:19;;;;;;;5.53;4.40;;;15.90;99.90;;;;;;5034413;28;20163;-87
2022/08/22 01:06:58;;;;;;;5.10;4.10;;;16.00;99.90;;;;;;5034357;28;20174;-87
2022/08/22 01:09:36;;;;;;;5.00;4.50;;;16.00;99.90;;;;;;5033475;28;20567;-87
2022/08/22 01:12:20;;;;;;;6.33;4.13;;;16.00;99.90;;;;;;5033643;28;20231;-87
2022/08/22 01:14:51;;;;;;;6.27;4.30;;;16.10;99.90;;;;;;5034529;28;20624;-87
2022/08/22 01:17:45;;;;;;;6.90;3.90;;;16.10;99.90;;;;;;5033864;28;20171;-87
2022/08/22 01:20:53;;;;;;;4.90;4.33;;;16.00;99.90;;;;;;5033715;28;20181;-87
2022/08/22 01:23:34;;;;;;;6.20;4.47;;;16.00;99.90;;;;;;5034196;28;20202;-87
2022/08/22 01:26:06;;;;;;;5.13;4.13;;;15.80;99.90;;;;;;5033744;28;20182;-87
2022/08/22 01:29:15;;;;;;;5.83;4.77;;;15.80;99.90;;;;;;5033864;28;20213;-87
2022/08/22 01:32:03;;;;;;;5.00;4.27;;;15.70;99.90;;;;;;5033341;28;20643;-87
2022/08/22 01:34:41;;;;;;;5.10;4.60;;;15.70;99.90;;;;;;5033610;28;20197;-87
2022/08/22 01:37:38;;;;;;;5.50;4.57;;;15.70;99.90;;;;;;5033571;28;20639;-87
2022/08/22 01:40:22;;;;;;;5.90;4.50;;;15.70;99.90;;;;;;4996196;28;20223;-87
2022/08/22 01:43:00;;;;;;;7.33;4.30;;;15.70;99.90;;;;;;5033407;28;20293;-87
2022/08/22 01:45:52;;;;;;;5.27;4.53;;;15.80;99.90;;;;;;5033513;28;20266;-87
2022/08/22 01:48:26;;;;;;;6.13;4.73;;;15.80;99.90;;;;;;5033469;28;20171;-87
2022/08/22 01:51:12;;;;;;;6.50;4.60;;;15.70;99.90;;;;;;5016582;28;20163;-87
2022/08/22 01:53:50;;;;;;;5.33;4.70;;;15.70;99.90;;;;;;5033344;28;20202;-87
2022/08/22 01:56:19;;;;;;;5.30;4.37;;;15.70;99.90;;;;;;5033508;28;20165;-87
2022/08/22 01:59:32;;;;;;;6.87;4.97;;;15.70;99.90;;;;;;5016991;28;20232;-87
2022/08/22 02:02:14;;;;;;;6.33;4.90;;;15.60;99.90;;;;;;5013580;28;20682;-87
2022/08/22 02:05:20;;;;;;;5.77;4.40;;;15.50;99.90;;;;;;5033101;28;20265;-87
2022/08/22 02:08:14;;;;;;;5.37;4.73;;;15.50;99.90;;;;;;5033006;28;20175;-87
2022/08/22 02:11:02;;;;;;;6.23;4.50;;;15.30;99.90;;;;;;5032544;28;20178;-87
2022/08/22 02:13:57;;;;;;;4.77;4.27;;;15.40;99.90;;;;;;5032759;28;20206;-87
2022/08/22 02:16:36;;;;;;;5.40;4.13;;;15.40;99.90;;;;;;5032855;28;20171;-87
2022/08/22 02:19:09;;;;;;;5.30;4.13;;;15.50;99.90;;;;;;5032742;28;20203;-87
2022/08/22 02:22:01;;;;;;;7.07;5.10;;;15.50;99.90;;;;;;5031485;28;20177;-87
2022/08/22 02:24:36;;;;;;;9.23;5.30;;;15.50;99.90;;;;;;5032031;28;20191;-86
2022/08/22 02:27:03;;;;;;;6.27;5.13;;;15.30;99.90;;;;;;5033154;28;20182;-87
2022/08/22 02:29:41;;;;;;;8.13;4.70;;;15.20;99.90;;;;;;5032662;28;20174;-87
2022/08/22 02:32:34;;;;;;;6.37;4.97;;;15.20;99.90;;;;;;5032831;28;20320;-87
2022/08/22 02:35:13;;;;;;;5.70;4.80;;;15.10;99.90;;;;;;5032506;28;20200;-87
2022/08/22 02:37:47;;;;;;;7.57;5.00;;;15.10;99.90;;;;;;5032516;28;20209;-87
2022/08/22 02:40:31;;;;;;;5.90;5.03;;;15.10;99.90;;;;;;5032228;28;20202;-86
2022/08/22 02:43:11;;;;;;;9.30;5.47;;;15.00;99.90;;;;;;5032075;28;20300;-87
2022/08/22 02:45:48;;;;;;;6.87;5.27;;;14.90;99.90;;;;;;5032756;28;20166;-86
2022/08/22 02:48:19;;;;;;;6.80;5.07;;;14.80;99.90;;;;;;5032325;28;20170;-87
2022/08/22 02:51:00;;;;;;;7.73;5.20;;;14.90;99.90;;;;;;5031887;28;20179;-87
2022/08/22 02:53:37;;;;;;;6.47;5.00;;;14.80;99.90;;;;;;5032059;28;20202;-87
2022/08/22 02:56:08;;;;;;;6.23;4.67;;;14.80;99.90;;;;;;5033401;28;20166;-86
2022/08/22 02:58:44;;;;;;;7.10;4.90;;;14.90;99.90;;;;;;5032181;28;20222;-87
2022/08/22 03:01:31;;;;;;;5.47;4.90;;;14.90;99.90;;;;;;5031721;28;20261;-87
2022/08/22 03:04:29;;;;;;;7.90;5.17;;;14.90;99.90;;;;;;5031854;28;20173;-86
2022/08/22 03:07:13;;;;;;;5.77;4.80;;;14.80;99.90;;;;;;5020417;28;20197;-87
2022/08/22 03:09:54;;;;;;;6.97;5.00;;;14.80;99.90;;;;;;5015690;28;20177;-86
2022/08/22 03:12:31;;;;;;;7.67;5.17;;;14.80;99.90;;;;;;5031796;28;20202;-87
2022/08/22 03:15:32;;;;;;;7.63;5.00;;;14.70;99.90;;;;;;5032226;28;20221;-86
2022/08/22 03:18:21;;;;;;;7.03;4.83;;;14.70;99.90;;;;;;5031702;28;20182;-87
2022/08/22 03:20:57;;;;;;;7.33;5.23;;;14.70;99.90;;;;;;5032935;28;20174;-86
2022/08/22 03:23:38;;;;;;;6.07;4.77;;;14.70;99.90;;;;;;5031970;28;20193;-87
2022/08/22 03:26:26;;;;;;;8.67;5.43;;;14.70;99.90;;;;;;5031844;28;20264;-87
2022/08/22 03:29:03;;;;;;;5.93;5.03;;;14.70;99.90;;;;;;5031779;28;20170;-87
2022/08/22 03:31:31;;;;;;;6.47;5.23;;;14.80;99.90;;;;;;5031250;28;20173;-87
2022/08/22 03:34:21;;;;;;;5.77;5.17;;;14.70;99.90;;;;;;5031561;28;20239;-87
2022/08/22 03:37:14;;;;;;;4.93;4.43;;;14.70;99.90;;;;;;5031715;28;20324;-86
2022/08/22 03:39:49;;;;;;;6.37;4.67;;;14.60;99.90;;;;;;5031235;28;20286;-86
2022/08/22 03:42:55;;;;;;;5.50;4.50;;;14.50;99.90;;;;;;5032406;28;20218;-86
2022/08/22 03:45:52;;;;;;;5.40;4.80;;;14.40;99.90;;;;;;5014039;28;20221;-87
2022/08/22 03:48:41;;;;;;;5.93;4.10;;;14.30;99.90;;;;;;5031333;28;20273;-87
2022/08/22 03:51:17;;;;;;;6.80;5.03;;;14.30;99.90;;;;;;5031061;28;20179;-87
2022/08/22 03:54:09;;;;;;;5.20;4.43;;;14.20;99.90;;;;;;5031345;28;20564;-86
2022/08/22 03:57:07;;;;;;;4.93;4.40;;;14.20;99.90;;;;;;5011775;28;20203;-87
2022/08/22 03:59:57;;;;;;;5.30;4.23;;;14.10;99.90;;;;;;4963663;28;20236;-87
2022/08/22 04:02:53;;;;;;;5.23;4.10;;;14.10;99.90;;;;;;5039875;28;20297;-86
2022/08/22 04:05:32;;;;;;;5.60;4.43;;;14.10;99.90;;;;;;5038693;28;20182;-86
2022/08/22 04:08:16;;;;;;;6.13;4.40;;;14.00;99.90;;;;;;5031452;28;20163;-87
2022/08/22 04:11:04;;;;;;;6.33;4.60;;;14.00;99.90;;;;;;5031244;28;20156;-86
2022/08/22 04:14:07;;;;;;;6.63;4.70;;;14.00;99.90;;;;;;5030781;28;20283;-86
2022/08/22 04:17:03;;;;;;;5.27;4.40;;;14.00;99.90;;;;;;5030432;28;20225;-86
2022/08/22 04:20:10;;;;;;;5.87;4.57;;;13.90;99.90;;;;;;5031388;28;20206;-86
2022/08/22 04:23:17;;;;;;;6.53;4.17;;;13.90;99.90;;;;;;4955287;28;20222;-86
2022/08/22 04:25:52;;;;;;;6.40;4.40;;;13.90;99.90;;;;;;4879405;28;20199;-86
2022/08/22 04:28:21;;;;;;;5.73;4.03;;;13.90;99.90;;;;;;5001145;28;20201;-86
2022/08/22 04:31:06;;;;;;;5.30;4.80;;;13.90;99.90;;;;;;5014492;28;20656;-87
2022/08/22 04:33:52;;;;;;;7.23;4.97;;;13.90;99.90;;;;;;5031254;28;20198;-86
2022/08/22 04:36:29;;;;;;;4.80;4.30;;;13.90;99.90;;;;;;5031025;28;20299;-86
2022/08/22 04:39:17;;;;;;;5.53;4.97;;;13.80;99.90;;;;;;5030969;28;20228;-86
2022/08/22 04:41:57;;;;;;;6.17;4.97;;;13.80;99.90;;;;;;5014096;28;20197;-86
2022/08/22 04:44:35;;;;;;;8.70;4.90;;;13.80;99.90;;;;;;5032580;28;20169;-86
2022/08/22 04:47:13;;;;;;;7.53;5.63;;;13.80;99.90;;;;;;5034521;28;20260;-86
2022/08/22 04:49:47;;;;;;;6.00;4.93;;;13.80;99.90;;;;;;5034547;28;20201;-86
2022/08/22 04:52:47;;;;;;;8.33;5.53;;;13.70;99.90;;;;;;5034151;28;20208;-87
2022/08/22 04:55:34;;;;;;;6.33;5.10;;;13.70;99.90;;;;;;5034533;28;20239;-86
2022/08/22 04:58:14;;;;;;;8.73;5.40;;;13.70;99.90;;;;;;5034277;28;20268;-86
2022/08/22 05:01:05;;;;;;;8.53;5.57;;;13.60;99.90;;;;;;5034114;28;20233;-86
2022/08/22 05:03:35;;;;;;;6.60;5.30;;;13.70;99.90;;;;;;5034590;28;20197;-86
2022/08/22 05:06:04;;;;;;;5.77;5.17;;;13.70;99.90;;;;;;5034378;28;20166;-86
2022/08/22 05:08:34;;;;;;;11.03;5.53;;;13.70;99.90;;;;;;5033921;28;20239;-86
2022/08/22 05:11:02;;;;;;;6.37;4.90;;;13.70;99.90;;;;;;5034109;28;20186;-87
2022/08/22 05:13:38;;;;;;;6.83;4.97;;;13.70;99.90;;;;;;5034125;28;20252;-86
2022/08/22 05:16:10;;;;;;;7.27;5.83;;;13.80;99.90;;;;;;5033932;28;20193;-86
2022/08/22 05:18:44;;;;;;;8.87;5.40;;;13.90;99.90;;;;;;5033984;28;20206;-86
2022/08/22 05:21:11;;;;;;;8.43;6.00;;;14.00;99.90;;;;;;5033747;28;20185;-86
2022/08/22 05:23:49;;;;;;;8.57;5.50;;;14.00;99.90;;;;;;5033552;28;20210;-86
2022/08/22 05:26:17;;;;;;;9.20;5.83;;;14.00;99.90;;;;;;5033615;28;20190;-86
2022/08/22 05:28:47;;;;;;;7.23;5.67;;;14.00;99.90;;;;;;5034914;28;20189;-86
2022/08/22 05:31:25;;;;;;;7.30;5.50;;;14.10;99.90;;;;;;5033466;28;20193;-86
2022/08/22 05:33:57;;;;;;;9.13;5.70;;;14.20;99.90;;;;;;5034055;28;20206;-86
2022/08/22 05:36:30;;;;;;;8.13;5.90;;;14.20;99.90;;;;;;5033571;28;20171;-86
2022/08/22 05:39:03;;;;;;;7.23;5.63;;;14.30;99.90;;;;;;5033446;28;20234;-86
2022/08/22 05:41:35;;;;;;;5.83;4.87;;;14.50;99.90;;;;;;5033420;28;20174;-86
2022/08/22 05:44:01;;;;;;;5.90;5.30;;;14.60;99.90;;;;;;5033588;28;20633;-87
2022/08/22 05:46:39;;;;;;;6.43;5.50;;;14.70;99.90;;;;;;5017144;28;20187;-86
2022/08/22 05:49:14;;;;;;;8.97;5.70;;;14.80;99.90;;;;;;5033417;28;20485;-86
2022/08/22 05:52:06;;;;;;;8.37;5.53;;;14.90;99.90;;;;;;5033088;28;20162;-86
2022/08/22 05:54:45;;;;;;;6.67;5.50;;;15.00;99.90;;;;;;5033404;28;20167;-86
2022/08/22 05:57:26;;;;;;;6.07;5.13;;;15.10;99.90;;;;;;5033205;28;20209;-86
2022/08/22 06:00:08;;;;;;;7.63;4.83;;;15.20;99.90;;;;;;5033135;28;20262;-86
2022/08/22 06:02:57;;;;;;;7.63;5.63;;;15.30;99.90;;;;;;5032854;28;20202;-86
2022/08/22 06:05:30;;;;;;;5.83;5.20;;;15.40;99.90;;;;;;5006205;28;20204;-86
2022/08/22 06:08:25;;;;;;;6.00;5.40;;;15.50;99.90;;;;;;5033363;28;20167;-86
2022/08/22 06:10:56;;;;;;;6.57;5.77;;;15.50;99.90;;;;;;5015853;28;20191;-86
2022/08/22 06:13:32;;;;;;;8.53;5.77;;;15.60;99.90;;;;;;5032758;28;20205;-86
2022/08/22 06:16:20;;;;;;;8.73;5.47;;;15.60;99.90;;;;;;5015827;28;20241;-86
2022/08/22 06:18:48;;;;;;;8.87;6.10;;;15.70;99.90;;;;;;5033052;28;20256;-87
2022/08/22 06:21:24;;;;;;;6.70;5.17;;;15.70;99.90;;;;;;5032599;28;20266;-86
2022/08/22 06:23:59;;;;;;;6.30;5.70;;;15.80;99.90;;;;;;5032893;28;20237;-87
2022/08/22 06:26:29;;;;;;;6.17;5.33;;;15.90;99.90;;;;;;5032719;28;20190;-87
2022/08/22 06:28:59;;;;;;;8.10;5.60;;;16.00;99.90;;;;;;5032886;28;20183;-87
2022/08/22 06:31:44;;;;;;;7.40;5.60;;;16.10;99.90;;;;;;5032328;28;20229;-87
2022/08/22 06:34:25;;;;;;;9.90;5.37;;;16.20;99.90;;;;;;5032633;28;20718;-87
2022/08/22 06:36:53;;;;;;;7.50;5.43;;;16.30;99.90;;;;;;5032614;28;20171;-87
2022/08/22 06:39:28;;;;;;;6.50;5.43;;;16.30;99.90;;;;;;5032335;28;20241;-86
2022/08/22 06:42:07;;;;;;;5.83;5.23;;;16.40;99.90;;;;;;5032246;28;20264;-86
2022/08/22 06:44:48;;;;;;;6.70;5.60;;;16.60;99.90;;;;;;5032079;28;20178;-86
2022/08/22 06:47:22;;;;;;;6.63;5.37;;;16.70;99.90;;;;;;5031652;28;20225;-87
2022/08/22 06:49:54;;;;;;;6.10;5.50;;;16.70;99.90;;;;;;5015760;28;20236;-86
2022/08/22 06:52:23;;;;;;;7.80;5.20;;;16.80;99.90;;;;;;5032094;28;20198;-86
2022/08/22 06:55:09;;;;;;;8.10;5.70;;;17.00;99.90;;;;;;5032145;28;20178;-87
2022/08/22 06:57:43;;;;;;;5.83;5.03;;;17.10;99.90;;;;;;5032223;28;20174;-87
2022/08/22 07:00:14;;;;;;;7.63;5.70;;;17.30;99.90;;;;;;5031703;28;20206;-86
2022/08/22 07:02:57;;;;;;;6.68;5.30;;;17.50;99.90;;;;;;5031974;28;20209;-87
2022/08/22 07:05:33;;;;;;;6.53;5.37;;;17.60;99.90;;;;;;5031995;28;20182;-87
2022/08/22 07:08:08;;;;;;;6.30;5.70;;;17.80;99.90;;;;;;5031468;28;20170;-87
2022/08/22 07:10:35;;;;;;;7.03;5.40;;;17.80;99.90;;;;;;5032018;28;20293;-87
2022/08/22 07:13:03;;;;;;;7.20;5.50;;;17.90;99.90;;;;;;5015356;28;20217;-87
2022/08/22 07:15:36;;;;;;;6.82;4.95;;;18.10;99.90;;;;;;5031825;28;20213;-87
2022/08/22 07:18:13;;;;;;;5.80;4.97;;;18.20;99.90;;;;;;5031619;28;20192;-87
2022/08/22 07:20:44;;;;;;;6.55;5.55;;;18.30;99.90;;;;;;5031643;28;20179;-86
2022/08/22 07:23:23;;;;;;;8.35;5.93;;;18.40;99.90;;;;;;5031679;28;20198;-87
2022/08/22 07:25:56;;;;;;;8.02;4.85;;;18.50;99.90;;;;;;5031798;28;20193;-87
2022/08/22 07:28:34;;;;;;;6.68;5.30;;;18.60;99.90;;;;;;5031925;28;20163;-87
2022/08/22 07:31:28;;;;;;;6.60;5.18;;;18.80;99.90;;;;;;5031298;28;20174;-87
2022/08/22 08:08:30;;;;;;;5.28;4.78;;;19.90;99.90;;;;;;5107495;27;20566;-42
2022/08/22 08:10:59;;;;;;;7.03;4.97;;;20.70;99.90;;;;;;5090444;28;20176;-40
2022/08/22 08:13:39;;;;;;;7.18;5.10;;;20.90;99.90;;;;;;5089892;28;20229;-42
2022/08/22 08:16:09;;;;;;;6.68;4.63;;;21.00;99.90;;;;;;5090255;28;20271;-41
2022/08/22 08:18:37;;;;;;;5.00;4.50;;;21.00;99.90;;;;;;5089851;28;20184;-41
2022/08/22 08:21:09;;;;;;;6.03;4.68;;;21.10;99.90;;;;;;5103721;22;20252;-36
2022/08/22 08:23:40;;;;;;;6.55;4.72;;;21.20;99.90;;;;;;5046123;28;20236;-36
2022/08/22 08:26:10;;;;;;;5.03;4.45;;;21.30;99.90;;;;;;5029471;28;20205;-36
2022/08/22 08:28:48;;;;;;;5.28;4.47;;;21.50;99.90;;;;;;5046452;28;20174;-35
2022/08/22 08:31:28;;;;;;;6.03;4.75;;;21.70;99.90;;;;;;5029754;28;20194;-36
2022/08/22 08:34:10;;;;;;;7.60;4.60;;;21.90;99.90;;;;;;5046447;28;20253;-33
2022/08/22 08:36:38;;;;;;;4.47;4.05;;;22.20;99.90;;;;;;5045949;28;20189;-35
2022/08/22 08:39:14;;;;;;;4.55;4.00;;;22.30;99.90;;;;;;5029514;28;20185;-35
2022/08/22 08:41:59;;;;;;;4.68;4.18;;;22.60;99.90;;;;;;5046256;28;20213;-36
2022/08/22 08:44:44;;;;;;;6.68;4.43;;;22.80;99.90;;;;;;5029485;28;20703;-35
2022/08/22 08:47:16;;;;;;;5.05;3.90;;;22.90;99.90;;;;;;5029177;28;20214;-37
2022/08/22 08:49:50;;;;;;;4.50;4.10;;;23.10;99.90;;;;;;5045960;28;20264;-36
2022/08/22 08:52:46;;;;;;;5.43;4.32;;;23.20;99.90;;;;;;5045870;28;20250;-33
2022/08/22 08:55:31;;;;;;;6.80;4.38;;;23.40;99.90;;;;;;5045687;28;20187;-36
2022/08/22 08:58:26;;;;;;;5.88;3.90;;;23.50;99.90;;;;;;5028564;28;20182;-35
2022/08/22 09:01:10;;;;;;;5.88;4.10;;;23.40;99.90;;;;;;5045798;28;20260;-36
2022/08/22 09:03:55;;;;;;;6.75;4.20;;;23.50;99.90;;;;;;5045881;28;20178;-35
2022/08/22 09:06:45;;;;;;;5.68;3.60;;;23.70;99.90;;;;;;5045640;28;20210;-35
2022/08/22 09:09:30;;;;;;;5.55;3.72;;;23.80;99.90;;;;;;5033729;28;20187;-35
2022/08/22 09:12:07;;;;;;;5.28;3.97;;;23.90;99.90;;;;;;5015495;28;20676;-36
2022/08/22 09:14:48;;;;;;;5.63;4.22;;;24.10;99.90;;;;;;5015814;28;20178;-35
2022/08/22 09:17:30;;;;;;;4.97;3.90;;;24.30;99.90;;;;;;5031822;28;20194;-36
2022/08/22 09:20:18;;;;;;;3.97;3.55;;;24.50;99.90;;;;;;5031909;28;20182;-35
2022/08/22 09:22:47;;;;;;;5.07;3.45;;;24.30;99.90;;;;;;5015591;28;20653;-35
2022/08/22 09:25:55;;;;;;;4.85;4.03;;;24.40;99.90;;;;;;5033513;28;20170;-36
2022/08/22 09:28:46;;;;;;;5.13;3.75;;;24.50;99.90;;;;;;5014951;28;20189;-36
2022/08/22 09:31:31;;;;;;;4.32;3.60;;;24.70;99.90;;;;;;5031804;28;20302;-36
2022/08/22 09:34:24;;;;;;;5.82;3.22;;;24.70;99.90;;;;;;5015471;28;20183;-36
2022/08/22 09:37:12;;;;;;;4.22;3.40;;;25.00;99.90;;;;;;5015151;28;20205;-34
2022/08/22 09:40:04;;;;;;;6.25;3.38;;;25.20;99.90;;;;;;5031657;28;20186;-36
2022/08/22 09:42:50;;;;;;;5.25;4.05;;;25.40;99.90;;;;;;5031876;28;20264;-36
2022/08/22 09:45:31;;;;;;;4.70;3.75;;;25.60;99.90;;;;;;5031180;28;20556;-34
2022/08/22 09:48:07;;;;;;;5.10;3.75;;;25.70;99.90;;;;;;5031501;28;20198;-34
2022/08/22 09:50:51;;;;;;;4.93;3.70;;;25.70;99.90;;;;;;5015134;28;20233;-36
2022/08/22 09:53:58;;;;;;;4.18;3.67;;;25.90;99.90;;;;;;5014837;28;20182;-34
2022/08/22 09:56:51;;;;;;;6.50;3.80;;;26.10;99.90;;;;;;5015142;28;20190;-34
2022/08/22 09:59:39;;;;;;;5.03;3.42;;;26.00;99.90;;;;;;5015081;28;20250;-36
2022/08/22 10:02:27;;;;;;;4.28;3.15;;;26.00;99.90;;;;;;5016539;28;20301;-34
2022/08/22 10:05:08;;;;;;;5.90;3.80;;;26.30;99.90;;;;;;5014987;28;20186;-34
2022/08/22 10:07:53;;;;;;;3.47;3.17;;;26.60;99.90;;;;;;5014365;28;20202;-34
2022/08/22 10:10:30;;;;;;;3.92;3.40;;;26.80;99.90;;;;;;5014954;28;20203;-34
2022/08/22 10:13:15;;;;;;;4.53;3.40;;;26.90;99.90;;;;;;5014811;28;20236;-33
2022/08/22 10:16:22;;;;;;;6.72;3.40;;;27.00;99.90;;;;;;5014725;28;20270;-35
2022/08/22 10:19:16;;;;;;;4.45;3.10;;;27.00;99.90;;;;;;4967465;28;20191;-34
2022/08/22 10:22:01;;;;;;;4.63;3.38;;;27.10;98.90;;;;;;5014016;28;20210;-36
2022/08/22 10:24:43;;;;;;;3.55;3.13;;;27.00;99.90;;;;;;5014219;28;20181;-36
2022/08/22 10:27:19;;;;;;;7.03;3.30;;;27.10;99.20;;;;;;5013897;28;20206;-35
2022/08/22 10:30:06;;;;;;;4.63;3.08;;;27.20;98.40;;;;;;5031101;28;20233;-36
2022/08/22 10:32:43;;;;;;;4.25;3.35;;;27.30;97.70;;;;;;5030918;28;20271;-33
2022/08/22 10:35:34;;;;;;;3.63;3.00;;;27.20;96.70;;;;;;5014218;28;20186;-34
2022/08/22 10:38:10;;;;;;;3.58;2.80;;;27.20;95.50;;;;;;5013896;28;20191;-34
2022/08/22 10:40:42;;;;;;;3.42;3.13;;;27.20;95.90;;;;;;5014065;28;20202;-36
2022/08/22 10:43:26;;;;;;;3.53;3.08;;;27.30;95.70;;;;;;5013832;28;20186;-35
2022/08/22 10:46:05;;;;;;;4.57;3.08;;;27.30;95.00;;;;;;5013937;28;20194;-35
2022/08/22 10:48:41;;;;;;;5.43;2.97;;;27.30;94.70;;;;;;5030514;28;20178;-36
2022/08/22 10:51:43;;;;;;;6.35;3.38;;;27.50;94.80;;;;;;5014045;28;20348;-34
2022/08/22 10:54:36;;;;;;;3.22;2.92;;;27.80;93.50;;;;;;5030350;28;20175;-36
2022/08/22 10:57:38;;;;;;;4.47;3.05;;;28.00;94.10;;;;;;5031523;28;20668;-36
2022/08/22 11:00:13;;;;;;;3.20;2.90;;;28.00;93.00;;;;;;5030130;28;20266;-39
2022/08/22 11:02:39;;;;;;;3.53;2.60;;;28.20;93.10;;;;;;5030632;28;20174;-38
2022/08/22 11:05:17;;;;;;;5.75;3.38;;;28.30;91.30;;;;;;5013965;28;20268;-36
2022/08/22 11:08:00;;;;;;;4.18;2.85;;;28.10;91.20;;;;;;5013728;28;20213;-36
2022/08/22 11:10:47;;;;;;;4.53;3.47;;;28.00;91.20;;;;;;5029769;28;20190;-38
2022/08/22 11:13:39;;;;;;;5.00;3.13;;;28.10;92.60;;;;;;5030327;28;20179;-37
2022/08/22 11:16:17;;;;;;;4.68;2.95;;;28.30;90.90;;;;;;5013653;28;20241;-36
2022/08/22 11:19:01;;;;;;;5.03;3.10;;;28.40;91.90;;;;;;5013139;28;20216;-38
2022/08/22 11:22:01;;;;;;;5.13;2.85;;;28.70;91.00;;;;;;5014083;28;20202;-36
2022/08/22 11:24:30;;;;;;;6.07;3.13;;;28.80;91.10;;;;;;5013750;28;20228;-37
2022/08/22 11:27:13;;;;;;;4.70;3.00;;;29.10;90.80;;;;;;5029165;28;20256;-38
2022/08/22 11:30:00;;;;;;;3.40;3.10;;;29.10;90.50;;;;;;5013275;28;20195;-36
2022/08/22 11:33:08;;;;;;;5.55;2.60;;;28.80;88.40;;;;;;5030000;28;20198;-38
2022/08/22 11:35:48;;;;;;;4.07;3.13;;;28.80;90.90;;;;;;5029451;28;20191;-36
2022/08/22 11:38:27;;;;;;;6.22;3.00;;;28.90;90.20;;;;;;5029495;28;20190;-37
2022/08/22 11:41:08;;;;;;;3.38;2.65;;;28.90;90.00;;;;;;5013709;28;20300;-36
2022/08/22 11:43:37;;;;;;;3.95;3.08;;;29.00;89.20;;;;;;5013083;28;20180;-36
2022/08/22 11:46:17;;;;;;;3.88;2.75;;;29.10;90.40;;;;;;5013183;28;20198;-37
2022/08/22 11:49:11;;;;;;;4.25;3.17;;;29.20;88.10;;;;;;5012966;28;20183;-40
2022/08/22 11:51:40;;;;;;;4.05;3.10;;;29.30;90.00;;;;;;5029489;28;20205;-35
2022/08/22 11:54:38;;;;;;;5.22;2.97;;;29.60;88.70;;;;;;5012841;28;20181;-36
2022/08/22 11:57:09;;;;;;;3.60;2.85;;;29.70;86.80;;;;;;4992438;28;20194;-37
2022/08/22 12:00:03;;;;;;;3.83;2.70;;;30.00;88.00;;;;;;5013358;28;20170;-36
2022/08/22 12:03:08;;;;;;;5.30;3.00;;;29.80;85.70;;;;;;5029436;28;20179;-34
2022/08/22 12:05:43;;;;;;;3.50;2.45;;;29.70;87.70;;;;;;5013037;28;20217;-34
2022/08/22 12:08:15;;;;;;;2.92;2.60;;;30.00;87.80;;;;;;5012973;28;20197;-36
2022/08/22 12:10:56;;;;;;;4.47;2.67;;;30.00;83.50;;;;;;5029145;28;20230;-36
2022/08/22 12:14:00;;;;;;;3.40;3.00;;;30.30;85.30;;;;;;5013056;28;20174;-34
2022/08/22 12:16:58;;;;;;;4.78;2.63;;;30.20;87.30;;;;;;5011011;28;20196;-34
2022/08/22 12:19:34;;;;;;;5.10;3.20;;;30.00;84.10;;;;;;5029293;28;20190;-34
2022/08/22 12:22:28;;;;;;;3.15;2.80;;;29.90;84.60;;;;;;5012688;28;20217;-34
2022/08/22 12:25:05;;;;;;;3.25;2.70;;;29.70;86.10;;;;;;5013507;28;20221;-34
2022/08/22 12:28:19;;;;;;;3.00;2.70;;;29.90;85.80;;;;;;5028564;28;20202;-35
2022/08/22 12:31:03;;;;;;;4.20;2.80;;;30.10;84.90;;;;;;4994485;28;20257;-36
2022/08/22 12:33:45;;;;;;;3.25;2.88;;;30.40;85.20;;;;;;5012681;28;20179;-35
2022/08/22 12:36:32;;;;;;;5.50;3.00;;;30.40;83.50;;;;;;5013147;28;20178;-36
2022/08/22 12:39:39;;;;;;;3.08;2.72;;;30.40;83.20;;;;;;5012559;28;20186;-34
2022/08/22 12:42:27;;;;;;;3.47;2.60;;;30.70;81.70;;;;;;5006887;28;20210;-36
2022/08/22 12:45:26;;;;;;;3.97;2.63;;;30.80;80.50;;;;;;5016252;28;20190;-34
2022/08/22 12:48:40;;;;;;;4.15;2.85;;;30.90;80.80;;;;;;5016064;28;20735;-34
2022/08/22 12:51:21;;;;;;;4.40;2.80;;;31.20;80.70;;;;;;5027063;28;20210;-36
2022/08/22 12:54:13;;;;;;;3.35;2.60;;;31.30;79.00;;;;;;5016248;28;20183;-36
2022/08/22 12:57:15;;;;;;;4.80;2.80;;;31.50;81.50;;;;;;5015532;28;20175;-34
2022/08/22 12:59:46;;;;;;;4.38;2.88;;;31.70;79.10;;;;;;5014092;28;20190;-35
2022/08/22 13:02:17;;;;;;;3.30;2.70;;;31.50;77.80;;;;;;5016102;28;20244;-34
2022/08/22 13:04:55;;;;;;;3.33;2.58;;;31.30;77.00;;;;;;5033894;28;20178;-35
2022/08/22 13:07:29;;;;;;;3.10;2.80;;;30.70;77.20;;;;;;5015631;28;20237;-34
2022/08/22 13:10:05;;;;;;;3.70;2.33;;;30.70;78.90;;;;;;5032562;28;20184;-35
2022/08/22 13:12:44;;;;;;;2.75;2.55;;;30.70;78.00;;;;;;5016078;28;20178;-34
2022/08/22 13:15:34;;;;;;;2.72;2.53;;;30.80;79.70;;;;;;5015823;28;20189;-34
2022/08/22 13:18:05;;;;;;;3.28;2.70;;;30.90;78.50;;;;;;5015638;28;20182;-35
2022/08/22 13:20:40;;;;;;;3.35;2.63;;;31.00;78.80;;;;;;5032213;28;20221;-34
2022/08/22 13:23:16;;;;;;;3.33;2.50;;;31.30;77.00;;;;;;5015851;28;20186;-35
2022/08/22 13:25:59;;;;;;;3.92;2.78;;;31.40;76.40;;;;;;5015540;28;20197;-35
2022/08/22 13:28:27;;;;;;;2.70;2.50;;;31.50;76.20;;;;;;5015128;28;20183;-36
2022/08/22 13:30:54;;;;;;;3.15;2.85;;;31.60;77.80;;;;;;5015878;28;20206;-35
2022/08/22 13:33:34;;;;;;;2.92;2.60;;;31.90;75.60;;;;;;5016073;28;20183;-35
2022/08/22 13:36:08;;;;;;;2.50;2.30;;;31.90;72.90;;;;;;5015492;28;20174;-35
2022/08/22 13:39:21;;;;;;;3.00;2.70;;;32.00;73.00;;;;;;5031769;28;20224;-35
2022/08/22 13:41:54;;;;;;;3.60;2.50;;;31.80;72.00;;;;;;5024661;28;20221;-36
2022/08/22 13:44:36;;;;;;;2.83;2.45;;;31.80;75.00;;;;;;5015720;28;20182;-37
2022/08/22 13:47:10;;;;;;;2.97;2.33;;;32.10;74.10;;;;;;5015154;28;20214;-35
2022/08/22 13:49:40;;;;;;;3.38;2.80;;;32.20;73.70;;;;;;5015438;28;20186;-34
2022/08/22 13:52:18;;;;;;;3.42;2.50;;;32.10;73.60;;;;;;5031544;28;20202;-36
2022/08/22 13:55:10;;;;;;;3.10;2.65;;;32.40;73.80;;;;;;5015018;28;20178;-35
2022/08/22 13:57:43;;;;;;;3.05;2.30;;;32.50;72.90;;;;;;5014286;28;20182;-34
2022/08/22 14:00:18;;;;;;;6.18;2.72;;;32.40;69.70;;;;;;5031780;28;20183;-37
2022/08/22 14:02:47;;;;;;;5.18;2.92;;;32.10;71.00;;;;;;5014813;28;20281;-36
2022/08/22 14:05:38;;;;;;;4.63;2.80;;;32.10;72.80;;;;;;5014969;28;20246;-35
2022/08/22 14:08:22;;;;;;;3.67;2.47;;;32.00;74.70;;;;;;5030913;28;20218;-34
2022/08/22 14:10:56;;;;;;;3.10;2.80;;;32.00;74.30;;;;;;5031507;28;20735;-36
2022/08/22 14:13:34;;;;;;;3.97;2.50;;;31.80;74.50;;;;;;5015311;28;20177;-38
2022/08/22 14:16:03;;;;;;;4.43;2.88;;;31.80;74.50;;;;;;5014817;28;20186;-35
2022/08/22 14:18:37;;;;;;;2.88;2.65;;;32.00;74.00;;;;;;5014638;28;20190;-36
2022/08/22 14:21:33;;;;;;;4.47;2.85;;;32.20;74.50;;;;;;5015100;28;20218;-34
2022/08/22 14:24:21;;;;;;;3.30;2.70;;;32.20;74.90;;;;;;5014781;28;20213;-36
2022/08/22 14:27:04;;;;;;;3.10;2.63;;;32.20;75.80;;;;;;5031046;28;20292;-36
2022/08/22 14:29:45;;;;;;;2.90;2.55;;;32.40;77.20;;;;;;5014619;28;20174;-34
2022/08/22 14:32:20;;;;;;;3.28;2.97;;;32.70;75.00;;;;;;5014538;28;20241;-36
2022/08/22 14:34:51;;;;;;;3.53;2.70;;;32.90;74.40;;;;;;5014220;28;20224;-35
2022/08/22 14:37:26;;;;;;;3.63;2.85;;;33.10;74.20;;;;;;5030663;28;20235;-35
2022/08/22 14:40:02;;;;;;;4.10;3.08;;;33.20;75.00;;;;;;5014669;28;20281;-36